createdAt,value
2023-01-12T00:00:06.409Z,4.43
2023-01-12T00:03:05.029Z,4.63
2023-01-12T00:05:37.509Z,5.43
2023-01-12T00:08:10.422Z,3.25
2023-01-12T00:10:43.164Z,3.63
2023-01-12T00:13:16.099Z,5.20
2023-01-12T00:16:07.011Z,3.42
2023-01-12T00:18:39.919Z,3.65
2023-01-12T00:21:12.485Z,3.17
2023-01-12T00:23:45.652Z,2.95
2023-01-12T00:26:18.201Z,3.47
2023-01-12T00:28:51.041Z,3.75
2023-01-12T00:31:23.696Z,3.15
2023-01-12T00:33:56.621Z,2.88
2023-01-12T00:36:29.139Z,2.90
2023-01-12T00:39:02.344Z,2.28
2023-01-12T00:41:55.574Z,2.67
2023-01-12T00:44:47.253Z,2.45
2023-01-12T00:47:19.854Z,3.88
2023-01-12T00:49:53.532Z,2.78
2023-01-12T00:52:31.160Z,2.40
2023-01-12T00:55:04.829Z,2.72
2023-01-12T00:57:37.365Z,2.50
2023-01-12T01:00:10.656Z,3.33
2023-01-12T01:02:43.787Z,3.30
2023-01-12T01:05:18.139Z,3.10
2023-01-12T01:07:50.669Z,2.53
2023-01-12T01:10:23.587Z,3.47
2023-01-12T01:12:56.140Z,3.30
2023-01-12T01:15:29.149Z,2.63
2023-01-12T01:18:01.639Z,2.97
2023-01-12T01:20:36.948Z,3.80
2023-01-12T01:23:09.446Z,3.42
2023-01-12T01:25:42.365Z,3.17
2023-01-12T01:28:15.466Z,2.25
2023-01-12T01:30:48.878Z,2.63
2023-01-12T01:33:21.401Z,2.92
2023-01-12T01:35:54.357Z,2.60
2023-01-12T01:38:26.831Z,3.00
2023-01-12T01:40:59.882Z,3.15
2023-01-12T01:44:07.914Z,2.78
2023-01-12T01:46:53.399Z,2.45
2023-01-12T01:49:29.008Z,2.47
2023-01-12T01:52:12.160Z,2.78
2023-01-12T01:54:56.776Z,2.88
2023-01-12T01:57:33.722Z,3.13
2023-01-12T02:00:06.630Z,3.33
2023-01-12T02:02:42.141Z,3.25
2023-01-12T02:05:19.015Z,3.40
2023-01-12T02:07:52.435Z,2.67
2023-01-12T02:10:25.753Z,2.60
2023-01-12T02:13:17.576Z,3.88
2023-01-12T02:16:16.995Z,2.88
2023-01-12T02:18:52.765Z,3.50
2023-01-12T02:21:43.767Z,2.45
2023-01-12T02:24:16.685Z,2.92
2023-01-12T02:26:49.168Z,2.47
2023-01-12T02:29:28.260Z,3.40
2023-01-12T02:32:19.297Z,2.50
2023-01-12T02:34:58.525Z,2.60
2023-01-12T02:37:49.839Z,3.30
2023-01-12T02:40:31.973Z,2.97
2023-01-12T02:45:50.369Z,2.53
2023-01-12T02:48:28.606Z,2.78
2023-01-12T02:51:04.648Z,3.00
2023-01-12T02:53:45.216Z,2.63
2023-01-12T02:56:32.071Z,2.72
2023-01-12T02:59:07.865Z,2.03
2023-01-12T03:01:41.498Z,2.83
2023-01-12T03:04:15.941Z,2.85
2023-01-12T03:06:51.885Z,3.00
2023-01-12T03:09:27.299Z,2.33
2023-01-12T03:12:06.314Z,2.78
2023-01-12T03:14:40.243Z,3.10
2023-01-12T03:17:20.506Z,2.78
2023-01-12T03:19:55.012Z,3.35
2023-01-12T03:22:28.133Z,3.67
2023-01-12T03:25:02.658Z,3.05
2023-01-12T03:27:39.435Z,3.17
2023-01-12T03:30:26.746Z,2.78
2023-01-12T03:32:59.674Z,2.10
2023-01-12T03:35:34.315Z,2.40
2023-01-12T03:38:17.250Z,2.85
2023-01-12T03:40:53.538Z,2.90
2023-01-12T03:43:32.947Z,3.00
2023-01-12T03:46:08.573Z,3.00
2023-01-12T03:48:44.558Z,2.20
2023-01-12T03:51:20.714Z,3.35
2023-01-12T03:53:55.114Z,3.38
2023-01-12T03:56:29.882Z,2.92
2023-01-12T03:59:03.657Z,3.40
2023-01-12T04:01:36.463Z,3.20
2023-01-12T04:04:09.513Z,2.97
2023-01-12T04:06:42.002Z,3.58
2023-01-12T04:09:14.958Z,3.10
2023-01-12T04:12:07.685Z,2.88
2023-01-12T04:14:41.731Z,3.33
2023-01-12T04:17:14.947Z,4.13
2023-01-12T04:19:49.093Z,5.15
2023-01-12T04:22:40.309Z,4.38
2023-01-12T04:25:14.887Z,4.90
2023-01-12T04:27:48.597Z,4.38
2023-01-12T04:30:23.831Z,5.07
2023-01-12T04:32:56.712Z,7.03
2023-01-12T04:35:29.723Z,12.75
2023-01-12T04:38:05.943Z,11.48
2023-01-12T04:40:38.935Z,21.77
2023-01-12T04:43:12.352Z,11.77
2023-01-12T04:45:45.413Z,7.40
2023-01-12T04:48:19.765Z,6.55
2023-01-12T04:50:52.946Z,5.20
2023-01-12T04:53:26.525Z,4.97
2023-01-12T04:56:02.999Z,5.68
2023-01-12T04:58:35.785Z,5.70
2023-01-12T05:01:12.639Z,6.55
2023-01-12T05:03:45.633Z,5.30
2023-01-12T05:06:18.628Z,6.00
2023-01-12T05:09:09.756Z,5.22
2023-01-12T05:11:42.686Z,4.10
2023-01-12T05:14:15.167Z,4.88
2023-01-12T05:16:48.055Z,4.28
2023-01-12T05:19:20.842Z,3.20
2023-01-12T05:21:53.704Z,4.40
2023-01-12T05:24:26.314Z,3.83
2023-01-12T05:27:00.881Z,4.40
2023-01-12T05:29:33.547Z,4.38
2023-01-12T05:32:06.485Z,4.63
2023-01-12T05:34:39.139Z,4.38
2023-01-12T05:37:12.014Z,4.15
2023-01-12T05:39:44.575Z,3.17
2023-01-12T05:42:36.045Z,3.72
2023-01-12T05:45:09.107Z,3.65
2023-01-12T05:47:41.997Z,3.88
2023-01-12T05:50:14.613Z,4.80
2023-01-12T05:52:47.515Z,3.92
2023-01-12T05:55:20.192Z,3.22
2023-01-12T05:57:53.368Z,3.17
2023-01-12T06:00:26.099Z,3.40
2023-01-12T06:02:58.950Z,3.33
2023-01-12T06:05:31.639Z,4.70
2023-01-12T06:08:04.599Z,4.75
2023-01-12T06:10:39.588Z,5.88
2023-01-12T06:13:30.921Z,5.13
2023-01-12T06:16:09.514Z,6.22
2023-01-12T06:18:42.617Z,5.22
2023-01-12T06:21:15.413Z,4.40
2023-01-12T06:23:52.242Z,4.00
2023-01-12T06:26:24.815Z,4.28
2023-01-12T06:28:57.873Z,4.38
2023-01-12T06:31:31.214Z,3.47
2023-01-12T06:34:04.125Z,4.50
2023-01-12T06:36:36.877Z,3.92
2023-01-12T06:39:11.624Z,3.80
2023-01-12T06:42:02.461Z,4.93
2023-01-12T06:44:35.363Z,4.07
2023-01-12T06:47:07.913Z,6.53
2023-01-12T06:49:40.984Z,7.60
2023-01-12T06:52:13.583Z,5.90
2023-01-12T06:54:46.835Z,5.40
2023-01-12T06:57:19.606Z,4.65
2023-01-12T06:59:52.587Z,3.60
2023-01-12T07:02:25.079Z,3.47
2023-01-12T07:04:58.036Z,3.75
2023-01-12T07:07:30.592Z,4.00
2023-01-12T07:10:04.388Z,3.90
2023-01-12T07:12:36.860Z,4.07
2023-01-12T07:15:09.972Z,4.57
2023-01-12T07:17:42.476Z,4.07
2023-01-12T07:20:15.568Z,4.30
2023-01-12T07:22:48.195Z,4.55
2023-01-12T07:25:21.490Z,3.67
2023-01-12T07:27:58.165Z,4.35
2023-01-12T07:30:31.091Z,4.05
2023-01-12T07:33:07.712Z,4.35
2023-01-12T07:35:41.138Z,7.70
2023-01-12T07:38:13.843Z,5.95
2023-01-12T07:40:46.834Z,7.15
2023-01-12T07:43:19.597Z,13.75
2023-01-12T07:45:52.660Z,14.25
2023-01-12T07:48:26.983Z,13.80
2023-01-12T07:50:59.983Z,13.50
2023-01-12T07:53:32.556Z,9.05
2023-01-12T07:56:05.573Z,5.85
2023-01-12T07:58:38.097Z,5.43
2023-01-12T08:01:11.110Z,4.20
2023-01-12T08:03:43.814Z,6.43
2023-01-12T08:06:16.760Z,5.57
2023-01-12T08:08:49.374Z,5.55
2023-01-12T08:11:23.324Z,4.47
2023-01-12T08:13:57.252Z,4.22
2023-01-12T08:16:33.381Z,3.70
2023-01-12T08:19:10.143Z,4.45
2023-01-12T08:21:46.393Z,3.60
2023-01-12T08:24:22.487Z,3.08
2023-01-12T08:26:57.705Z,3.15
2023-01-12T08:29:34.059Z,3.92
2023-01-12T08:34:42.739Z,3.08
2023-01-12T08:37:16.815Z,3.22
2023-01-12T08:39:51.692Z,5.22
2023-01-12T08:42:27.987Z,3.45
2023-01-12T08:45:01.414Z,2.85
2023-01-12T08:47:34.813Z,2.97
2023-01-12T08:50:09.168Z,3.58
2023-01-12T08:52:42.005Z,3.85
2023-01-12T08:55:14.552Z,3.33
2023-01-12T08:57:47.661Z,3.78
2023-01-12T09:00:20.539Z,4.10
2023-01-12T09:02:53.419Z,3.13
2023-01-12T09:05:26.947Z,2.25
2023-01-12T09:08:00.329Z,2.40
2023-01-12T09:10:33.023Z,2.40
2023-01-12T09:13:05.950Z,2.35
2023-01-12T09:15:38.455Z,1.75
2023-01-12T09:18:11.979Z,2.45
2023-01-12T09:20:44.669Z,3.30
2023-01-12T09:23:17.532Z,2.72
2023-01-12T09:25:50.091Z,2.90
2023-01-12T09:28:23.225Z,3.03
2023-01-12T09:30:55.955Z,2.33
2023-01-12T09:33:29.693Z,3.67
2023-01-12T09:36:25.728Z,4.45
2023-01-12T09:38:58.844Z,2.92
2023-01-12T09:41:52.436Z,2.15
2023-01-12T09:44:57.019Z,2.60
2023-01-12T09:47:35.761Z,4.30
2023-01-12T09:50:21.862Z,3.65
2023-01-12T09:53:01.245Z,4.30
2023-01-12T09:55:52.954Z,2.70
2023-01-12T09:58:28.238Z,2.60
2023-01-12T10:01:02.680Z,1.58
2023-01-12T10:03:39.061Z,2.13
2023-01-12T10:06:19.017Z,2.55
2023-01-12T10:08:52.615Z,2.10
2023-01-12T10:11:37.795Z,1.77
2023-01-12T10:14:10.916Z,2.33
2023-01-12T10:16:56.047Z,1.92
2023-01-12T10:19:31.545Z,1.90
2023-01-12T10:22:37.916Z,2.08
2023-01-12T10:25:17.078Z,2.40
2023-01-12T10:27:51.557Z,2.78
2023-01-12T10:30:42.913Z,4.57
2023-01-12T10:33:18.608Z,2.55
2023-01-12T10:36:06.252Z,3.55
2023-01-12T10:38:40.126Z,2.88
2023-01-12T10:41:17.347Z,1.73
2023-01-12T10:43:59.051Z,2.05
2023-01-12T10:46:32.820Z,2.95
2023-01-12T10:49:19.605Z,2.40
2023-01-12T10:51:56.814Z,2.60
2023-01-12T10:54:34.128Z,1.30
2023-01-12T10:57:14.204Z,1.40
2023-01-12T10:59:51.713Z,1.67
2023-01-12T11:02:29.323Z,1.48
2023-01-12T11:05:02.530Z,1.10
2023-01-12T11:07:48.337Z,1.20
2023-01-12T11:10:27.303Z,1.45
2023-01-12T11:13:01.070Z,1.02
2023-01-12T11:15:39.286Z,1.45
2023-01-12T11:18:29.834Z,1.30
2023-01-12T11:21:16.325Z,1.20
2023-01-12T11:23:48.829Z,0.82
2023-01-12T11:26:24.213Z,1.27
2023-01-12T11:28:59.607Z,1.15
2023-01-12T11:31:35.635Z,1.40
2023-01-12T11:34:20.033Z,1.30
2023-01-12T11:37:03.449Z,0.93
2023-01-12T11:39:36.118Z,1.23
2023-01-12T11:42:31.169Z,1.77
2023-01-12T11:45:03.783Z,1.88
2023-01-12T11:47:41.759Z,4.28
2023-01-12T11:50:26.478Z,1.67
2023-01-12T11:52:59.582Z,0.65
2023-01-12T11:55:49.312Z,1.45
2023-01-12T11:58:28.323Z,0.73
2023-01-12T12:01:19.573Z,0.90
2023-01-12T12:03:57.728Z,1.00
2023-01-12T12:06:33.044Z,0.82
2023-01-12T12:09:15.236Z,0.90
2023-01-12T12:11:54.678Z,1.10
2023-01-12T12:14:46.586Z,1.40
2023-01-12T12:17:21.537Z,1.08
2023-01-12T12:19:57.348Z,0.95
2023-01-12T12:22:32.781Z,0.70
2023-01-12T12:25:05.624Z,1.05
2023-01-12T12:27:59.420Z,1.13
2023-01-12T12:30:50.585Z,0.68
2023-01-12T12:33:38.968Z,0.70
2023-01-12T12:36:11.797Z,0.98
2023-01-12T12:39:02.797Z,0.90
2023-01-12T12:42:04.892Z,0.80
2023-01-12T12:45:03.172Z,1.25
2023-01-12T12:50:19.139Z,0.80
2023-01-12T12:53:03.387Z,0.88
2023-01-12T12:55:36.159Z,1.20
2023-01-12T12:58:21.069Z,0.57
2023-01-12T13:00:54.856Z,0.98
2023-01-12T13:03:39.928Z,1.13
2023-01-12T13:06:21.410Z,1.83
2023-01-12T13:08:58.883Z,4.45
2023-01-12T13:11:54.127Z,1.75
2023-01-12T13:14:28.686Z,4.25
2023-01-12T13:17:01.175Z,2.70
2023-01-12T13:19:37.343Z,2.10
2023-01-12T13:22:27.542Z,1.80
2023-01-12T13:25:01.565Z,2.03
2023-01-12T13:27:54.550Z,1.75
2023-01-12T13:30:30.447Z,1.90
2023-01-12T13:33:12.485Z,4.18
2023-01-12T13:35:46.172Z,3.22
2023-01-12T13:38:36.668Z,2.35
2023-01-12T13:41:15.780Z,3.40
2023-01-12T13:43:48.337Z,5.30
2023-01-12T13:46:22.757Z,3.10
2023-01-12T13:48:56.078Z,2.35
2023-01-12T13:51:29.009Z,3.45
2023-01-12T13:54:01.604Z,3.35
2023-01-12T13:56:34.734Z,4.60
2023-01-12T13:59:15.864Z,4.13
2023-01-12T14:01:49.201Z,7.65
2023-01-12T14:04:45.429Z,6.70
2023-01-12T14:07:41.105Z,6.03
2023-01-12T14:10:25.880Z,3.00
2023-01-12T14:13:10.650Z,4.20
2023-01-12T14:16:02.747Z,4.22
2023-01-12T14:18:45.814Z,3.58
2023-01-12T14:21:21.258Z,1.90
2023-01-12T14:23:54.583Z,2.78
2023-01-12T14:26:27.604Z,3.10
2023-01-12T14:29:00.873Z,2.38
2023-01-12T14:31:37.348Z,2.17
2023-01-12T14:34:29.055Z,2.90
2023-01-12T14:37:03.311Z,3.20
2023-01-12T14:39:41.732Z,2.83
2023-01-12T14:42:36.305Z,2.60
2023-01-12T14:45:48.008Z,3.17
2023-01-12T14:48:23.766Z,2.38
2023-01-12T14:51:04.630Z,3.05
2023-01-12T14:53:41.635Z,3.85
2023-01-12T14:56:17.579Z,3.47
2023-01-12T14:58:50.303Z,3.53
2023-01-12T15:01:37.802Z,4.57
2023-01-12T15:04:18.838Z,3.75
2023-01-12T15:07:05.718Z,4.40
2023-01-12T15:09:52.485Z,3.75
2023-01-12T15:12:31.225Z,4.68
2023-01-12T15:15:15.995Z,6.38
2023-01-12T15:18:08.541Z,5.50
2023-01-12T15:21:03.643Z,6.13
2023-01-12T15:23:55.534Z,5.70
2023-01-12T15:26:28.049Z,5.35
2023-01-12T15:29:01.060Z,6.53
2023-01-12T15:31:34.911Z,5.57
2023-01-12T15:34:10.987Z,6.50
2023-01-12T15:36:43.497Z,5.35
2023-01-12T15:39:16.476Z,4.38
2023-01-12T15:42:07.327Z,4.47
2023-01-12T15:44:40.269Z,4.60
2023-01-12T15:47:13.998Z,4.30
2023-01-12T15:49:48.946Z,4.53
2023-01-12T15:52:23.246Z,4.57
2023-01-12T15:54:56.254Z,4.88
2023-01-12T15:57:28.699Z,4.43
2023-01-12T16:00:01.745Z,6.78
2023-01-12T16:02:41.728Z,4.55
2023-01-12T16:05:15.770Z,7.38
2023-01-12T16:07:48.925Z,4.53
2023-01-12T16:10:21.942Z,4.28
2023-01-12T16:12:54.448Z,3.85
2023-01-12T16:15:30.381Z,4.00
2023-01-12T16:18:03.008Z,4.55
2023-01-12T16:20:36.040Z,3.90
2023-01-12T16:23:08.563Z,3.58
2023-01-12T16:25:41.406Z,3.13
2023-01-12T16:28:13.951Z,6.00
2023-01-12T16:30:47.334Z,4.50
2023-01-12T16:33:19.886Z,6.82
2023-01-12T16:35:55.179Z,8.95
2023-01-12T16:38:28.031Z,8.45
2023-01-12T16:41:07.601Z,5.13
2023-01-12T16:43:48.029Z,6.50
2023-01-12T16:46:21.679Z,7.97
2023-01-12T16:48:56.121Z,6.00
2023-01-12T16:51:29.014Z,15.35
2023-01-12T16:54:03.127Z,9.95
2023-01-12T16:56:36.013Z,6.75
2023-01-12T16:59:09.629Z,5.80
2023-01-12T17:01:43.005Z,3.55
2023-01-12T17:04:16.766Z,3.78
2023-01-12T17:06:49.703Z,3.53
2023-01-12T17:09:22.361Z,4.07
2023-01-12T17:11:55.382Z,4.70
2023-01-12T17:14:29.623Z,7.43
2023-01-12T17:17:04.332Z,3.55
2023-01-12T17:19:37.988Z,3.53
2023-01-12T17:22:12.137Z,3.30
2023-01-12T17:24:44.902Z,3.88
2023-01-12T17:27:20.072Z,4.78
2023-01-12T17:29:52.653Z,4.88
2023-01-12T17:32:25.603Z,5.28
2023-01-12T17:34:58.191Z,4.05
2023-01-12T17:37:31.134Z,3.35
2023-01-12T17:40:04.234Z,5.22
2023-01-12T17:42:55.427Z,3.78
2023-01-12T17:45:28.504Z,4.38
2023-01-12T17:48:01.633Z,4.20
2023-01-12T17:50:34.809Z,3.10
2023-01-12T17:53:10.634Z,2.85
2023-01-12T17:55:48.180Z,3.17
2023-01-12T17:58:22.343Z,3.47
2023-01-12T18:00:54.952Z,5.85
2023-01-12T18:03:28.051Z,3.80
2023-01-12T18:06:09.033Z,4.32
2023-01-12T18:08:48.435Z,3.72
2023-01-12T18:11:21.111Z,3.45
2023-01-12T18:13:54.342Z,6.50
2023-01-12T18:16:27.294Z,6.45
2023-01-12T18:19:01.792Z,5.80
2023-01-12T18:21:34.748Z,4.47
2023-01-12T18:24:07.683Z,4.25
2023-01-12T18:26:40.726Z,5.97
2023-01-12T18:29:13.620Z,5.18
2023-01-12T18:31:47.607Z,5.78
2023-01-12T18:34:20.555Z,4.03
2023-01-12T18:36:53.071Z,4.53
2023-01-12T18:39:26.144Z,6.25
2023-01-12T18:42:21.432Z,6.28
2023-01-12T18:44:54.363Z,5.80
2023-01-12T18:47:45.362Z,5.22
2023-01-12T18:50:36.694Z,6.18
2023-01-12T18:53:26.414Z,5.40
2023-01-12T18:56:02.043Z,5.45
2023-01-12T18:58:35.183Z,5.40
2023-01-12T19:01:08.135Z,4.30
2023-01-12T19:03:41.743Z,3.17
2023-01-12T19:06:34.963Z,3.88
2023-01-12T19:09:26.122Z,8.82
2023-01-12T19:11:59.365Z,4.57
2023-01-12T19:14:50.104Z,10.05
2023-01-12T19:17:30.024Z,10.50
2023-01-12T19:20:07.577Z,5.68
2023-01-12T19:22:58.740Z,4.68
2023-01-12T19:25:49.764Z,5.13
2023-01-12T19:28:38.501Z,7.57
2023-01-12T19:31:12.010Z,7.90
2023-01-12T19:33:45.010Z,6.07
2023-01-12T19:36:17.576Z,5.78
2023-01-12T19:38:50.949Z,5.13
2023-01-12T19:41:41.799Z,3.90
2023-01-12T19:44:14.747Z,3.53
2023-01-12T19:46:47.839Z,4.28
2023-01-12T19:49:20.799Z,4.28
2023-01-12T19:51:53.257Z,3.10
2023-01-12T19:54:26.252Z,3.25
2023-01-12T19:56:58.780Z,2.75
2023-01-12T19:59:32.299Z,2.35
2023-01-12T20:02:06.216Z,3.00
2023-01-12T20:04:39.361Z,1.83
2023-01-12T20:07:12.535Z,2.85
2023-01-12T20:09:47.371Z,3.55
2023-01-12T20:12:20.064Z,3.88
2023-01-12T20:14:53.617Z,2.30
2023-01-12T20:17:26.292Z,4.70
2023-01-12T20:19:59.273Z,3.67
2023-01-12T20:22:31.751Z,5.60
2023-01-12T20:25:05.529Z,4.75
2023-01-12T20:27:38.598Z,3.30
2023-01-12T20:30:12.018Z,3.42
2023-01-12T20:32:45.933Z,3.30
2023-01-12T20:35:23.649Z,3.30
2023-01-12T20:37:56.453Z,3.53
2023-01-12T20:40:29.576Z,3.22
2023-01-12T20:43:02.107Z,3.08
2023-01-12T20:45:34.995Z,4.25
2023-01-12T20:48:07.612Z,2.90
2023-01-12T20:50:47.221Z,3.15
2023-01-12T20:53:20.180Z,2.78
2023-01-12T20:55:54.005Z,3.70
2023-01-12T20:58:26.814Z,3.35
2023-01-12T21:00:59.991Z,3.05
2023-01-12T21:03:32.651Z,4.05
2023-01-12T21:06:09.624Z,4.78
2023-01-12T21:08:45.514Z,3.30
2023-01-12T21:11:19.557Z,3.53
2023-01-12T21:13:52.204Z,3.25
2023-01-12T21:16:25.201Z,4.30
2023-01-12T21:18:57.779Z,3.25
2023-01-12T21:21:30.693Z,3.08
2023-01-12T21:24:03.232Z,2.67
2023-01-12T21:26:36.136Z,3.35
2023-01-12T21:29:08.884Z,3.42
2023-01-12T21:31:41.815Z,2.22
2023-01-12T21:34:14.433Z,3.38
2023-01-12T21:36:47.392Z,2.55
2023-01-12T21:39:19.986Z,2.83
2023-01-12T21:42:11.348Z,2.17
2023-01-12T21:44:43.946Z,2.77
2023-01-12T21:47:16.937Z,2.30
2023-01-12T21:49:49.853Z,3.75
2023-01-12T21:52:22.963Z,4.75
2023-01-12T21:54:55.518Z,5.05
2023-01-12T21:57:28.611Z,1.95
2023-01-12T22:00:01.226Z,2.70
2023-01-12T22:02:44.654Z,2.97
2023-01-12T22:05:18.581Z,2.28
2023-01-12T22:07:52.015Z,3.75
2023-01-12T22:10:30.767Z,3.13
2023-01-12T22:13:06.221Z,3.03
2023-01-12T22:15:38.740Z,2.78
2023-01-12T22:18:11.646Z,2.10
2023-01-12T22:20:45.059Z,3.20
2023-01-12T22:23:18.174Z,2.65
2023-01-12T22:25:50.852Z,1.77
2023-01-12T22:28:23.800Z,2.55
2023-01-12T22:30:56.559Z,3.00
2023-01-12T22:33:29.598Z,2.60
2023-01-12T22:36:02.668Z,2.17
2023-01-12T22:38:35.765Z,2.67
2023-01-12T22:41:09.988Z,2.42
2023-01-12T22:43:42.898Z,3.20
2023-01-12T22:46:19.553Z,3.28
2023-01-12T22:48:56.308Z,2.25
2023-01-12T22:51:30.033Z,2.30
2023-01-12T22:54:02.966Z,2.65
2023-01-12T22:56:36.036Z,2.15
2023-01-12T22:59:10.262Z,2.33
2023-01-12T23:01:42.829Z,1.83
2023-01-12T23:04:15.820Z,1.48
2023-01-12T23:06:48.402Z,2.10
2023-01-12T23:09:21.409Z,2.42
2023-01-12T23:11:53.916Z,2.45
2023-01-12T23:14:27.211Z,2.50
2023-01-12T23:16:59.717Z,2.90
2023-01-12T23:19:32.676Z,2.92
2023-01-12T23:22:05.799Z,2.28
2023-01-12T23:24:39.498Z,1.90
2023-01-12T23:27:12.079Z,1.88
2023-01-12T23:29:45.045Z,2.30
2023-01-12T23:32:17.659Z,2.35
2023-01-12T23:34:50.555Z,2.10
2023-01-12T23:37:23.475Z,1.73
2023-01-12T23:39:56.589Z,2.55
2023-01-12T23:42:30.685Z,2.17
2023-01-12T23:45:03.725Z,1.83
2023-01-12T23:47:36.322Z,1.83
2023-01-12T23:50:10.807Z,1.80
2023-01-12T23:52:43.628Z,2.22
2023-01-12T23:55:16.562Z,2.05
2023-01-12T23:57:49.078Z,1.73
